createdAt,value
2022-07-27T00:01:20.166Z,11.40
2022-07-27T00:03:48.851Z,12.60
2022-07-27T00:06:17.233Z,12.43
2022-07-27T00:08:45.632Z,11.77
2022-07-27T00:11:16.119Z,12.38
2022-07-27T00:13:45.283Z,11.40
2022-07-27T00:16:13.837Z,12.00
2022-07-27T00:18:42.166Z,12.23
2022-07-27T00:21:10.607Z,12.93
2022-07-27T00:23:38.944Z,14.27
2022-07-27T00:26:07.245Z,11.98
2022-07-27T00:28:37.071Z,11.40
2022-07-27T00:31:05.427Z,11.13
2022-07-27T00:33:33.737Z,15.15
2022-07-27T00:36:02.825Z,10.98
2022-07-27T00:38:31.323Z,11.80
2022-07-27T00:40:59.734Z,11.55
2022-07-27T00:43:28.235Z,11.68
2022-07-27T00:45:57.941Z,11.55
2022-07-27T00:48:26.492Z,12.82
2022-07-27T00:50:56.789Z,12.73
2022-07-27T00:53:25.497Z,12.52
2022-07-27T00:55:53.970Z,11.45
2022-07-27T00:58:22.978Z,11.82
2022-07-27T01:00:51.392Z,12.23
2022-07-27T01:03:29.373Z,11.88
2022-07-27T01:05:59.307Z,13.35
2022-07-27T01:08:30.597Z,11.40
2022-07-27T01:11:01.019Z,12.88
2022-07-27T01:13:31.612Z,11.43
2022-07-27T01:16:00.279Z,10.82
2022-07-27T01:18:31.990Z,12.88
2022-07-27T01:21:02.277Z,12.40
2022-07-27T01:23:33.585Z,12.02
2022-07-27T01:26:02.545Z,13.57
2022-07-27T01:28:31.181Z,13.23
2022-07-27T01:30:59.725Z,11.82
2022-07-27T01:33:28.082Z,12.93
2022-07-27T01:35:58.113Z,12.60
2022-07-27T01:38:26.758Z,14.32
2022-07-27T01:40:56.934Z,17.40
2022-07-27T01:43:25.544Z,13.70
2022-07-27T01:45:53.850Z,13.70
2022-07-27T01:48:22.714Z,12.15
2022-07-27T01:50:51.257Z,12.77
2022-07-27T01:53:20.352Z,16.20
2022-07-27T01:55:49.041Z,14.40
2022-07-27T01:58:19.081Z,13.70
2022-07-27T02:00:47.582Z,12.48
2022-07-27T02:03:15.874Z,12.68
2022-07-27T02:05:44.841Z,12.93
2022-07-27T02:08:13.585Z,15.10
2022-07-27T02:11:02.232Z,15.32
2022-07-27T02:13:30.995Z,12.93
2022-07-27T02:15:59.339Z,16.50
2022-07-27T02:18:36.051Z,13.13
2022-07-27T02:21:06.124Z,21.30
2022-07-27T02:23:39.375Z,14.57
2022-07-27T02:26:09.600Z,14.30
2022-07-27T02:28:39.523Z,13.10
2022-07-27T02:31:07.817Z,13.85
2022-07-27T02:33:36.114Z,14.40
2022-07-27T02:36:05.167Z,14.25
2022-07-27T02:38:33.458Z,13.30
2022-07-27T02:41:01.849Z,14.77
2022-07-27T02:43:30.831Z,13.60
2022-07-27T02:46:00.549Z,15.32
2022-07-27T02:48:28.950Z,13.88
2022-07-27T02:51:01.631Z,13.35
2022-07-27T02:53:30.422Z,14.02
2022-07-27T02:55:59.179Z,13.73
2022-07-27T02:58:27.503Z,18.65
2022-07-27T03:00:58.583Z,15.52
2022-07-27T03:03:36.057Z,14.88
2022-07-27T03:06:06.737Z,14.75
2022-07-27T03:08:35.398Z,16.23
2022-07-27T03:11:03.833Z,17.00
2022-07-27T03:13:32.460Z,15.10
2022-07-27T03:16:01.632Z,17.58
2022-07-27T03:18:31.482Z,15.48
2022-07-27T03:20:59.913Z,15.18
2022-07-27T03:23:28.583Z,13.85
2022-07-27T03:25:56.925Z,14.70
2022-07-27T03:28:25.440Z,14.40
2022-07-27T03:30:54.019Z,15.30
2022-07-27T03:33:22.460Z,15.57
2022-07-27T03:35:52.407Z,17.65
2022-07-27T03:38:20.885Z,21.30
2022-07-27T03:40:49.374Z,15.80
2022-07-27T03:43:17.934Z,20.00
2022-07-27T03:45:46.761Z,23.83
2022-07-27T03:48:15.259Z,19.73
2022-07-27T03:50:43.707Z,23.45
2022-07-27T03:53:13.532Z,21.90
2022-07-27T03:55:42.017Z,21.92
2022-07-27T03:58:10.452Z,21.13
2022-07-27T04:00:39.011Z,21.92
2022-07-27T04:03:07.630Z,23.83
2022-07-27T04:05:36.400Z,26.20
2022-07-27T04:08:04.991Z,26.73
2022-07-27T04:10:34.874Z,23.88
2022-07-27T04:13:03.555Z,27.05
2022-07-27T04:15:33.924Z,25.45
2022-07-27T04:18:02.311Z,26.15
2022-07-27T04:20:30.768Z,24.73
2022-07-27T04:22:59.179Z,27.63
2022-07-27T04:25:27.773Z,22.58
2022-07-27T04:27:57.645Z,21.55
2022-07-27T04:30:26.380Z,21.30
2022-07-27T04:32:54.983Z,28.75
2022-07-27T04:35:26.529Z,30.63
2022-07-27T04:37:58.436Z,19.65
2022-07-27T04:40:30.697Z,19.17
2022-07-27T04:43:00.609Z,25.27
2022-07-27T04:45:29.396Z,21.55
2022-07-27T04:47:58.015Z,20.52
2022-07-27T04:50:26.430Z,23.33
2022-07-27T04:53:00.040Z,23.17
2022-07-27T04:55:28.687Z,18.90
2022-07-27T04:57:57.135Z,19.63
2022-07-27T05:00:27.453Z,28.50
2022-07-27T05:02:56.088Z,26.73
2022-07-27T05:05:24.748Z,28.95
2022-07-27T05:07:53.185Z,24.33
2022-07-27T05:10:21.913Z,27.45
2022-07-27T05:12:50.770Z,26.63
2022-07-27T05:15:20.067Z,24.08
2022-07-27T05:17:50.047Z,23.10
2022-07-27T05:20:18.550Z,20.73
2022-07-27T05:22:47.243Z,22.13
2022-07-27T05:25:15.777Z,20.73
2022-07-27T05:27:53.807Z,23.98
2022-07-27T05:30:23.910Z,19.98
2022-07-27T05:32:54.051Z,21.40
2022-07-27T05:35:23.262Z,21.35
2022-07-27T05:37:51.823Z,18.95
2022-07-27T05:40:20.621Z,21.17
2022-07-27T05:42:49.106Z,22.52
2022-07-27T05:45:17.582Z,19.60
2022-07-27T05:47:46.082Z,21.55
2022-07-27T05:50:16.963Z,19.27
2022-07-27T05:52:45.827Z,20.60
2022-07-27T05:55:15.118Z,18.52
2022-07-27T05:57:43.722Z,17.23
2022-07-27T06:00:13.173Z,15.15
2022-07-27T06:02:42.431Z,14.90
2022-07-27T06:05:15.569Z,19.77
2022-07-27T06:08:00.075Z,23.52
2022-07-27T06:10:29.749Z,18.67
2022-07-27T06:12:58.442Z,21.17
2022-07-27T06:15:27.384Z,19.88
2022-07-27T06:17:56.278Z,18.83
2022-07-27T06:20:25.797Z,16.30
2022-07-27T06:22:57.314Z,17.17
2022-07-27T06:25:33.798Z,19.65
2022-07-27T06:28:04.454Z,18.33
2022-07-27T06:30:33.232Z,25.88
2022-07-27T06:33:04.398Z,23.60
2022-07-27T06:35:34.270Z,22.27
2022-07-27T08:35:16.724Z,14.98
2022-07-27T08:37:45.303Z,17.42
2022-07-27T08:43:05.175Z,16.75
2022-07-27T08:45:34.743Z,13.30
2022-07-27T08:48:03.521Z,14.07
2022-07-27T08:50:34.994Z,16.58
2022-07-27T08:53:06.403Z,17.50
2022-07-27T08:55:36.497Z,17.85
2022-07-27T08:58:05.505Z,17.02
2022-07-27T09:00:35.489Z,17.15
2022-07-27T09:03:04.442Z,16.73
2022-07-27T09:05:37.414Z,16.70
2022-07-27T09:08:14.449Z,14.75
2022-07-27T09:10:43.657Z,14.70
2022-07-27T09:13:20.908Z,16.63
2022-07-27T09:16:20.936Z,16.10
2022-07-27T09:18:40.878Z,15.23
2022-07-27T09:21:17.212Z,15.50
2022-07-27T09:23:48.423Z,15.52
2022-07-27T09:26:36.061Z,16.80
2022-07-27T09:29:07.325Z,14.57
2022-07-27T09:31:44.099Z,16.42
2022-07-27T09:34:14.870Z,16.27
2022-07-27T09:36:55.488Z,18.13
2022-07-27T09:39:25.453Z,16.80
2022-07-27T09:41:55.598Z,15.63
2022-07-27T09:44:42.999Z,15.98
2022-07-27T09:47:26.945Z,17.58
2022-07-27T09:49:58.253Z,16.65
2022-07-27T09:52:30.520Z,16.05
2022-07-27T09:55:05.015Z,17.13
2022-07-27T09:57:52.826Z,15.68
2022-07-27T10:00:22.052Z,16.77
2022-07-27T10:02:51.491Z,16.60
2022-07-27T10:05:21.759Z,16.50
2022-07-27T10:07:53.469Z,16.73
2022-07-27T10:10:22.778Z,16.92
2022-07-27T10:12:55.055Z,17.88
2022-07-27T10:15:24.510Z,17.42
2022-07-27T10:18:06.928Z,18.27
2022-07-27T10:20:39.887Z,18.77
2022-07-27T10:23:10.199Z,19.00
2022-07-27T10:25:38.808Z,17.55
2022-07-27T10:28:13.125Z,17.42
2022-07-27T10:30:41.759Z,17.30
2022-07-27T10:33:17.664Z,15.10
2022-07-27T10:35:46.235Z,15.88
2022-07-27T10:38:18.467Z,17.92
2022-07-27T10:40:47.443Z,16.70
2022-07-27T10:43:21.270Z,14.07
2022-07-27T10:46:01.763Z,16.55
2022-07-27T10:48:44.178Z,16.90
2022-07-27T10:51:17.686Z,16.55
2022-07-27T10:56:46.846Z,17.35
2022-07-27T10:59:15.892Z,17.15
2022-07-27T11:01:58.606Z,17.67
2022-07-27T11:04:27.393Z,18.90
2022-07-27T11:07:24.211Z,15.88
2022-07-27T11:10:06.092Z,17.80
2022-07-27T11:12:36.748Z,18.23
2022-07-27T11:15:06.202Z,17.10
2022-07-27T11:17:58.509Z,17.50
2022-07-27T11:20:26.789Z,13.88
2022-07-27T11:23:51.105Z,13.37
2022-07-27T11:26:01.914Z,16.20
2022-07-27T11:28:31.472Z,15.85
2022-07-27T11:31:03.433Z,15.45
2022-07-27T11:33:33.070Z,16.90
2022-07-27T11:36:03.263Z,14.98
2022-07-27T11:38:54.191Z,15.68
2022-07-27T11:41:47.932Z,15.20
2022-07-27T11:44:17.217Z,12.93
2022-07-27T11:46:46.936Z,14.93
2022-07-27T11:49:17.099Z,14.93
2022-07-27T11:51:46.956Z,15.88
2022-07-27T11:54:20.511Z,15.02
2022-07-27T11:56:51.660Z,14.07
2022-07-27T11:59:22.474Z,16.05
2022-07-27T12:01:53.132Z,14.68
2022-07-27T12:04:24.896Z,16.00
2022-07-27T12:07:06.349Z,16.38
2022-07-27T12:09:39.111Z,15.98
2022-07-27T12:12:16.638Z,15.48
2022-07-27T12:14:47.275Z,16.20
2022-07-27T12:17:30.093Z,14.38
2022-07-27T12:20:08.648Z,15.82
2022-07-27T12:22:39.589Z,16.02
2022-07-27T12:25:16.441Z,13.95
2022-07-27T12:27:58.180Z,16.02
2022-07-27T12:30:31.689Z,15.50
2022-07-27T12:33:01.345Z,14.55
2022-07-27T12:35:37.365Z,14.65
2022-07-27T12:38:09.265Z,14.52
2022-07-27T12:40:46.042Z,13.95
2022-07-27T12:43:19.636Z,15.52
2022-07-27T12:45:49.796Z,16.23
2022-07-27T12:48:21.689Z,13.93
2022-07-27T12:50:58.748Z,15.48
2022-07-27T12:53:27.507Z,15.25
2022-07-27T12:55:57.310Z,14.20
2022-07-27T12:58:27.320Z,16.05
2022-07-27T13:00:56.005Z,15.20
2022-07-27T13:03:24.635Z,15.63
2022-07-27T13:05:53.498Z,16.30
2022-07-27T13:08:22.163Z,16.55
2022-07-27T13:10:52.551Z,16.85
2022-07-27T13:13:24.822Z,17.13
2022-07-27T13:15:55.189Z,16.48
2022-07-27T13:18:24.237Z,15.55
2022-07-27T13:20:52.862Z,13.45
2022-07-27T13:23:22.239Z,17.63
2022-07-27T13:25:51.191Z,15.27
2022-07-27T13:28:19.717Z,15.35
2022-07-27T13:30:48.195Z,16.38
2022-07-27T13:33:18.021Z,16.05
2022-07-27T13:35:47.631Z,14.75
2022-07-27T13:38:28.810Z,15.18
2022-07-27T13:40:57.931Z,15.73
2022-07-27T13:43:26.453Z,13.70
2022-07-27T13:45:54.989Z,14.32
2022-07-27T13:48:24.977Z,14.05
2022-07-27T13:50:53.536Z,15.55
2022-07-27T13:53:22.071Z,14.02
2022-07-27T13:55:50.608Z,15.82
2022-07-27T13:58:19.945Z,16.65
2022-07-27T14:00:49.763Z,16.15
2022-07-27T14:03:18.389Z,15.27
2022-07-27T14:05:49.948Z,15.43
2022-07-27T14:08:21.967Z,17.42
2022-07-27T14:10:51.264Z,16.70
2022-07-27T14:13:22.441Z,15.77
2022-07-27T14:15:55.664Z,15.75
2022-07-27T14:18:26.411Z,14.80
2022-07-27T14:20:58.033Z,16.35
2022-07-27T14:23:27.758Z,14.55
2022-07-27T14:25:57.298Z,14.77
2022-07-27T14:28:27.111Z,12.65
2022-07-27T14:30:56.825Z,13.80
2022-07-27T14:33:27.882Z,14.65
2022-07-27T14:36:09.282Z,13.23
2022-07-27T14:38:38.806Z,13.75
2022-07-27T14:41:08.133Z,15.35
2022-07-27T14:43:37.231Z,13.73
2022-07-27T14:46:05.776Z,12.60
2022-07-27T14:49:04.674Z,15.82
2022-07-27T14:51:24.165Z,14.68
2022-07-27T14:53:52.676Z,15.40
2022-07-27T14:56:23.189Z,15.07
2022-07-27T14:58:51.735Z,15.80
2022-07-27T15:01:20.177Z,14.82
2022-07-27T15:03:49.430Z,15.15
2022-07-27T15:06:17.982Z,15.43
2022-07-27T15:08:47.944Z,18.75
2022-07-27T15:11:16.878Z,15.18
2022-07-27T15:13:45.386Z,14.77
2022-07-27T15:16:14.221Z,16.48
2022-07-27T15:18:43.296Z,15.65
2022-07-27T15:21:14.724Z,15.18
2022-07-27T15:23:44.687Z,14.65
2022-07-27T15:26:14.764Z,13.50
2022-07-27T15:28:43.827Z,14.43
2022-07-27T15:31:13.677Z,14.10
2022-07-27T15:33:42.733Z,15.30
2022-07-27T15:36:31.543Z,14.30
2022-07-27T15:39:00.497Z,14.27
2022-07-27T15:41:30.812Z,14.55
2022-07-27T15:43:59.645Z,12.50
2022-07-27T15:46:28.278Z,14.30
2022-07-27T15:48:57.303Z,16.55
2022-07-27T15:51:26.344Z,15.05
2022-07-27T15:53:55.999Z,15.63
2022-07-27T15:56:24.703Z,16.80
2022-07-27T15:58:54.736Z,14.23
2022-07-27T16:01:23.385Z,17.08
2022-07-27T16:04:04.482Z,13.68
2022-07-27T16:06:38.394Z,15.27
2022-07-27T16:09:10.360Z,18.13
2022-07-27T16:11:39.366Z,19.90
2022-07-27T16:14:09.276Z,16.73
2022-07-27T16:16:37.861Z,14.77
2022-07-27T16:19:13.469Z,14.93
2022-07-27T16:21:53.397Z,25.00
2022-07-27T16:24:24.798Z,17.23
2022-07-27T16:26:53.488Z,10.63
2022-07-27T16:29:23.441Z,13.02
2022-07-27T16:31:54.993Z,11.23
2022-07-27T16:34:23.500Z,13.13
2022-07-27T16:36:52.086Z,15.00
2022-07-27T16:39:20.642Z,12.25
2022-07-27T16:41:50.464Z,10.23
2022-07-27T16:44:21.123Z,13.32
2022-07-27T16:46:51.251Z,10.18
2022-07-27T16:49:19.794Z,12.70
2022-07-27T16:51:48.917Z,11.85
2022-07-27T16:54:17.674Z,17.67
2022-07-27T16:56:46.388Z,30.83
2022-07-27T16:59:15.947Z,24.67
2022-07-27T17:01:44.863Z,13.85
2022-07-27T17:04:14.834Z,13.60
2022-07-27T17:06:43.319Z,12.90
2022-07-27T17:09:11.966Z,12.40
2022-07-27T17:11:40.777Z,13.00
2022-07-27T17:14:11.989Z,11.55
2022-07-27T17:16:40.729Z,14.10
2022-07-27T17:19:09.213Z,11.48
2022-07-27T17:21:39.178Z,14.40
2022-07-27T17:24:08.365Z,14.20
2022-07-27T17:26:37.505Z,14.27
2022-07-27T17:29:06.167Z,29.70
2022-07-27T17:31:34.875Z,51.38
2022-07-27T17:34:03.395Z,46.78
2022-07-27T17:36:31.949Z,36.95
2022-07-27T17:39:02.511Z,16.52
2022-07-27T17:41:32.176Z,16.38
2022-07-27T17:44:01.161Z,15.45
2022-07-27T17:46:32.300Z,11.93
2022-07-27T17:49:02.934Z,12.73
2022-07-27T17:51:31.692Z,13.52
2022-07-27T17:54:03.974Z,11.98
2022-07-27T17:56:33.053Z,13.30
2022-07-27T17:59:20.328Z,16.52
2022-07-27T18:01:50.902Z,12.40
2022-07-27T18:04:19.614Z,15.18
2022-07-27T18:06:48.110Z,14.23
2022-07-27T18:09:18.259Z,13.48
2022-07-27T18:11:46.706Z,15.48
2022-07-27T18:14:15.259Z,14.18
2022-07-27T18:16:43.822Z,15.65
2022-07-27T18:19:12.481Z,15.45
2022-07-27T18:21:41.225Z,15.07
2022-07-27T18:24:10.208Z,15.88
2022-07-27T18:26:40.570Z,14.32
2022-07-27T18:29:10.101Z,12.70
2022-07-27T18:31:39.169Z,13.90
2022-07-27T18:34:12.599Z,14.23
2022-07-27T18:36:42.612Z,13.23
2022-07-27T18:39:11.563Z,14.43
2022-07-27T18:41:41.699Z,21.90
2022-07-27T18:44:10.320Z,16.88
2022-07-27T18:46:38.809Z,14.38
2022-07-27T18:49:08.052Z,12.68
2022-07-27T18:51:42.303Z,14.52
2022-07-27T18:54:10.839Z,15.23
2022-07-27T18:56:40.126Z,15.85
2022-07-27T18:59:10.325Z,13.77
2022-07-27T19:01:40.021Z,12.10
2022-07-27T19:04:08.688Z,12.70
2022-07-27T19:06:37.177Z,11.60
2022-07-27T19:09:06.614Z,12.10
2022-07-27T19:11:35.213Z,16.00
2022-07-27T19:14:03.703Z,12.38
2022-07-27T19:16:35.887Z,12.88
2022-07-27T19:19:06.687Z,13.88
2022-07-27T19:21:38.520Z,13.73
2022-07-27T19:24:07.463Z,11.82
2022-07-27T19:26:36.211Z,13.00
2022-07-27T19:29:04.896Z,12.50
2022-07-27T19:31:36.713Z,11.70
2022-07-27T19:34:05.591Z,11.15
2022-07-27T19:36:34.148Z,12.23
2022-07-27T19:39:07.470Z,11.52
2022-07-27T19:41:36.522Z,11.50
2022-07-27T19:44:05.593Z,12.50
2022-07-27T19:46:35.733Z,14.27
2022-07-27T19:49:04.385Z,12.57
2022-07-27T19:51:33.059Z,13.60
2022-07-27T19:54:01.689Z,12.35
2022-07-27T19:56:35.301Z,12.43
2022-07-27T19:59:05.680Z,12.10
2022-07-27T20:01:35.593Z,10.68
2022-07-27T20:04:07.525Z,12.15
2022-07-27T20:06:36.612Z,11.07
2022-07-27T20:09:06.579Z,11.93
2022-07-27T20:11:35.099Z,9.95
2022-07-27T20:14:04.050Z,11.55
2022-07-27T20:16:34.317Z,13.15
2022-07-27T20:19:04.329Z,12.07
2022-07-27T20:21:34.568Z,12.45
2022-07-27T20:24:03.492Z,11.00
2022-07-27T20:26:32.058Z,12.88
2022-07-27T20:29:01.356Z,12.52
2022-07-27T20:31:30.129Z,11.27
2022-07-27T20:33:59.300Z,12.55
2022-07-27T20:36:29.236Z,12.50
2022-07-27T20:38:59.235Z,11.85
2022-07-27T20:41:28.262Z,10.80
2022-07-27T20:43:56.835Z,11.48
2022-07-27T20:46:25.368Z,10.68
2022-07-27T20:48:54.016Z,12.43
2022-07-27T20:51:22.584Z,16.15
2022-07-27T20:53:52.821Z,12.50
2022-07-27T20:56:21.221Z,12.43
2022-07-27T20:58:49.725Z,12.90
2022-07-27T21:01:18.324Z,12.95
2022-07-27T21:03:46.921Z,11.98
2022-07-27T21:06:15.429Z,10.75
2022-07-27T21:08:46.717Z,10.05
2022-07-27T21:11:17.164Z,11.23
2022-07-27T21:13:45.889Z,10.60
2022-07-27T21:16:14.481Z,11.25
2022-07-27T21:18:42.985Z,11.05
2022-07-27T21:21:11.564Z,13.82
2022-07-27T21:23:57.591Z,12.98
2022-07-27T21:26:27.811Z,17.40
2022-07-27T21:28:57.946Z,13.48
2022-07-27T21:31:26.580Z,14.35
2022-07-27T21:33:55.129Z,8.50
2022-07-27T21:36:23.934Z,8.98
2022-07-27T21:38:52.457Z,8.07
2022-07-27T21:41:20.975Z,8.02
2022-07-27T21:43:51.058Z,7.65
2022-07-27T21:46:19.641Z,7.93
2022-07-27T21:48:48.815Z,6.05
2022-07-27T21:51:18.501Z,8.27
2022-07-27T21:53:47.477Z,7.00
2022-07-27T21:56:16.350Z,8.07
2022-07-27T21:58:46.104Z,8.02
2022-07-27T22:01:17.048Z,9.48
2022-07-27T22:03:46.239Z,8.18
2022-07-27T22:06:15.207Z,8.50
2022-07-27T22:08:44.129Z,8.55
2022-07-27T22:11:12.766Z,9.38
2022-07-27T22:13:41.330Z,8.15
2022-07-27T22:16:12.726Z,9.20
2022-07-27T22:18:42.748Z,8.30
2022-07-27T22:21:11.380Z,10.40
2022-07-27T22:23:39.765Z,9.98
2022-07-27T22:26:08.309Z,10.10
2022-07-27T22:28:36.802Z,9.80
2022-07-27T22:31:22.812Z,9.43
2022-07-27T22:33:53.121Z,8.82
2022-07-27T22:36:21.556Z,9.82
2022-07-27T22:38:50.135Z,10.82
2022-07-27T22:41:18.573Z,10.23
2022-07-27T22:43:47.089Z,10.98
2022-07-27T22:46:15.662Z,10.80
2022-07-27T22:48:44.330Z,11.02
2022-07-27T22:51:14.196Z,10.40
2022-07-27T22:53:42.677Z,10.85
2022-07-27T22:56:11.263Z,10.63
2022-07-27T22:58:39.864Z,10.88
2022-07-27T23:01:08.442Z,11.50
2022-07-27T23:03:56.814Z,10.57
2022-07-27T23:06:26.861Z,14.63
2022-07-27T23:08:55.384Z,14.40
2022-07-27T23:11:23.833Z,11.65
2022-07-27T23:13:52.345Z,11.70
2022-07-27T23:16:20.873Z,11.40
2022-07-27T23:18:49.445Z,10.65
2022-07-27T23:21:17.983Z,10.98
2022-07-27T23:23:53.359Z,12.30
2022-07-27T23:26:25.798Z,11.95
2022-07-27T23:28:55.188Z,13.52
2022-07-27T23:31:24.253Z,13.73
2022-07-27T23:33:52.751Z,13.93
2022-07-27T23:36:21.226Z,14.82
2022-07-27T23:38:51.122Z,14.07
2022-07-27T23:41:19.770Z,14.77
2022-07-27T23:43:48.419Z,14.88
2022-07-27T23:46:16.960Z,14.00
2022-07-27T23:48:45.526Z,17.05
2022-07-27T23:51:17.965Z,16.80
2022-07-27T23:53:47.751Z,14.82
2022-07-27T23:56:17.665Z,16.77
2022-07-27T23:58:46.173Z,15.07
